Time;durP1;ratioP1;P1;durP2;ratioP2;P2;SDS_P1;SDS_P2;PMS_P1;PMS_P2;Temp;Humidity;BMP_temperature;BMP_pressure;BME280_temperature;BME280_humidity;BME280_pressure;Samples;Min_cycle;Max_cycle;Signal;HPM_P1;HPM_P2
2023/05/16 00:02:20;;;;;;;22.50;21.30;;;14.90;1.00;;;;;;4924364;29;20469;-84
2023/05/16 00:04:49;;;;;;;23.17;21.97;;;14.90;1.00;;;;;;4923637;29;20461;-81
2023/05/16 00:10:14;;;;;;;23.90;22.60;;;14.80;1.00;;;;;;5118257;27;20561;-84
2023/05/16 00:12:43;;;;;;;23.33;22.07;;;14.90;1.00;;;;;;5116970;27;21015;-83
2023/05/16 00:15:13;;;;;;;25.80;24.10;;;14.90;1.00;;;;;;5112483;27;20969;-83
2023/05/16 00:17:45;;;;;;;24.50;23.10;;;14.80;1.00;;;;;;5111832;28;20445;-82
2023/05/16 00:20:16;;;;;;;24.20;22.90;;;14.80;1.00;;;;;;5110627;28;20448;-82
2023/05/16 00:22:45;;;;;;;26.70;24.80;;;14.80;1.00;;;;;;5107719;28;20460;-84
2023/05/16 00:25:18;;;;;;;26.67;25.07;;;14.70;1.00;;;;;;5106719;28;20476;-83
2023/05/16 00:27:53;;;;;;;29.67;27.57;;;14.80;1.00;;;;;;5111339;28;20498;-81
2023/05/16 00:30:48;;;;;;;28.50;26.33;;;14.80;1.00;;;;;;5112820;27;20805;-82
2023/05/16 00:33:29;;;;;;;28.60;26.67;;;14.70;1.00;;;;;;5110868;27;20443;-83
2023/05/16 00:35:58;;;;;;;28.23;26.23;;;14.80;99.90;;;;;;5108198;28;20494;-83
2023/05/16 00:39:00;;;;;;;27.27;25.47;;;14.80;99.90;;;;;;5111261;28;20441;-82
2023/05/16 01:00:41;;;;;;;29.30;27.30;;;14.60;1.00;;;;;;4849512;29;20445;-82
2023/05/16 01:03:59;;;;;;;28.77;26.87;;;14.50;1.00;;;;;;4910055;29;20531;-86
2023/05/16 01:06:41;;;;;;;26.67;24.87;;;14.50;1.00;;;;;;5099083;27;21207;-84
2023/05/16 01:09:11;;;;;;;28.50;26.60;;;14.50;1.00;;;;;;5097884;28;20456;-85
2023/05/16 01:11:47;;;;;;;28.83;26.77;;;14.50;1.00;;;;;;5099869;28;20482;-82
2023/05/16 01:14:23;;;;;;;31.13;28.67;;;14.50;1.00;;;;;;5091724;28;20836;-82
2023/05/16 01:16:59;;;;;;;32.53;29.93;;;14.40;1.00;;;;;;5096921;28;20485;-83
2023/05/16 01:19:51;;;;;;;31.73;29.43;;;14.40;1.00;;;;;;5099640;28;20460;-81
2023/05/16 01:22:32;;;;;;;32.80;30.20;;;14.40;1.00;;;;;;5097098;28;20464;-83
2023/05/16 01:25:11;;;;;;;34.03;31.47;;;14.40;1.00;;;;;;5090984;28;20606;-82
2023/05/16 01:27:41;;;;;;;33.80;31.10;;;14.30;1.00;;;;;;5094544;28;20486;-82
2023/05/16 01:30:18;;;;;;;33.87;31.37;;;14.40;1.00;;;;;;5097401;28;20459;-83
2023/05/16 01:32:46;;;;;;;34.23;31.17;;;14.40;1.00;;;;;;5091532;28;20492;-84
2023/05/16 01:35:17;;;;;;;31.90;29.47;;;14.40;1.00;;;;;;5095949;28;20562;-85
2023/05/16 01:37:51;;;;;;;34.43;31.53;;;14.40;1.00;;;;;;5096136;28;20965;-84
2023/05/16 01:40:30;;;;;;;33.93;31.40;;;14.40;1.00;;;;;;5098023;28;20522;-83
2023/05/16 01:43:03;;;;;;;34.13;31.43;;;14.40;1.00;;;;;;5098060;28;20456;-83
2023/05/16 01:45:34;;;;;;;33.00;30.50;;;14.30;1.00;;;;;;5094813;28;20484;-84
2023/05/16 01:48:07;;;;;;;35.13;32.33;;;14.40;1.00;;;;;;5097538;28;20449;-84
2023/05/16 01:50:43;;;;;;;35.37;32.57;;;14.30;1.00;;;;;;5094990;28;20452;-81
2023/05/16 01:53:16;;;;;;;35.30;32.40;;;14.30;1.00;;;;;;5098851;28;20543;-84
2023/05/16 01:55:47;;;;;;;36.17;33.20;;;14.30;1.00;;;;;;5096977;28;20486;-83
2023/05/16 01:58:20;;;;;;;35.33;32.33;;;14.30;1.00;;;;;;5098097;28;20551;-83
2023/05/16 02:00:48;;;;;;;35.83;32.60;;;14.30;1.00;;;;;;5094800;28;20464;-83
2023/05/16 02:03:16;;;;;;;36.03;32.83;;;14.20;1.00;;;;;;5097084;28;20452;-83
2023/05/16 02:05:44;;;;;;;37.07;33.80;;;14.20;1.00;;;;;;5096089;28;20519;-82
2023/05/16 02:08:14;;;;;;;35.00;32.23;;;14.20;1.00;;;;;;5090684;28;20539;-80
2023/05/16 02:10:42;;;;;;;37.30;34.20;;;14.10;1.00;;;;;;5094144;28;20546;-82
2023/05/16 02:13:10;;;;;;;37.33;34.00;;;14.10;1.00;;;;;;5093591;28;20456;-82
2023/05/16 02:15:40;;;;;;;37.10;33.90;;;14.00;1.00;;;;;;5092690;28;21087;-84
2023/05/16 02:18:08;;;;;;;36.13;32.83;;;14.00;1.00;;;;;;5082425;28;20456;-82
2023/05/16 02:20:36;;;;;;;37.40;34.50;;;13.90;1.00;;;;;;5082727;28;20448;-82
2023/05/16 02:23:04;;;;;;;36.63;33.23;;;13.90;1.00;;;;;;5085188;28;20445;-83
2023/05/16 02:25:33;;;;;;;37.57;34.43;;;13.90;1.00;;;;;;5082643;28;21095;-82
2023/05/16 02:28:01;;;;;;;36.77;33.73;;;13.80;40.10;;;;;;5080676;28;20458;-83
2023/05/16 02:30:29;;;;;;;37.43;34.10;;;13.90;1.00;;;;;;5084187;28;20468;-85
2023/05/16 02:32:58;;;;;;;38.63;35.23;;;13.90;10.00;;;;;;5081909;28;20712;-83
2023/05/16 02:35:26;;;;;;;37.30;34.20;;;13.80;20.40;;;;;;5081707;28;20559;-83
2023/05/16 02:37:56;;;;;;;36.33;33.13;;;13.90;87.80;;;;;;5085245;28;20466;-82
2023/05/16 02:40:24;;;;;;;38.70;35.17;;;13.90;85.70;;;;;;5082594;28;20483;-82
2023/05/16 02:42:52;;;;;;;40.67;36.77;;;13.90;21.40;;;;;;5085272;28;20460;-82
2023/05/16 02:45:20;;;;;;;37.67;34.37;;;13.90;20.90;;;;;;5082365;28;20461;-81
2023/05/16 02:47:48;;;;;;;39.03;35.73;;;13.90;99.90;;;;;;5081785;28;20525;-83
2023/05/16 02:50:18;;;;;;;38.70;35.40;;;13.90;99.90;;;;;;5079502;28;20482;-83
2023/05/16 02:52:46;;;;;;;39.40;35.60;;;13.90;27.10;;;;;;5084301;28;20497;-82
2023/05/16 02:55:14;;;;;;;40.77;36.80;;;13.90;83.50;;;;;;5080713;28;20549;-82
2023/05/16 02:58:01;;;;;;;40.30;36.50;;;13.90;99.90;;;;;;5081429;28;20454;-83
2023/05/16 03:00:30;;;;;;;39.10;35.40;;;13.90;30.90;;;;;;5080850;28;20443;-81
2023/05/16 03:02:58;;;;;;;41.57;37.67;;;13.90;94.00;;;;;;5076576;28;20569;-79
2023/05/16 03:05:28;;;;;;;40.30;36.40;;;13.80;99.90;;;;;;5082804;28;20492;-83
2023/05/16 03:07:56;;;;;;;41.90;37.83;;;13.70;99.90;;;;;;5081125;28;20456;-82
2023/05/16 03:10:24;;;;;;;41.27;37.27;;;13.70;99.90;;;;;;5081636;28;20459;-83
2023/05/16 03:12:53;;;;;;;40.73;36.37;;;13.70;99.90;;;;;;5080941;28;21120;-84
2023/05/16 03:15:21;;;;;;;42.60;38.40;;;13.70;99.90;;;;;;5112867;27;20507;-83
2023/05/16 03:17:49;;;;;;;44.63;39.83;;;13.70;99.90;;;;;;5111346;27;20453;-84
2023/05/16 03:20:18;;;;;;;43.17;39.07;;;13.70;99.90;;;;;;5077582;28;20605;-83
2023/05/16 03:22:47;;;;;;;41.83;38.07;;;13.70;99.90;;;;;;5079780;28;20468;-84
2023/05/16 03:25:15;;;;;;;42.20;38.10;;;13.70;99.90;;;;;;5079930;28;20592;-84
2023/05/16 03:27:44;;;;;;;42.43;38.03;;;13.70;99.90;;;;;;5079350;28;20492;-82
2023/05/16 03:30:13;;;;;;;42.03;37.90;;;13.70;1.00;;;;;;5077927;28;20475;-82
2023/05/16 03:32:41;;;;;;;44.50;39.80;;;13.70;1.00;;;;;;5078330;28;20465;-82
2023/05/16 03:35:10;;;;;;;42.33;38.03;;;13.70;1.00;;;;;;5077028;28;20895;-82
2023/05/16 03:37:39;;;;;;;43.43;39.00;;;13.70;1.00;;;;;;5080940;28;20450;-82
2023/05/16 03:40:11;;;;;;;43.83;39.27;;;13.70;1.00;;;;;;5081138;28;20458;-83
2023/05/16 03:42:39;;;;;;;44.97;40.30;;;13.70;1.00;;;;;;5081778;28;20455;-82
2023/05/16 03:45:08;;;;;;;45.23;40.77;;;13.70;1.00;;;;;;5082463;28;21034;-85
2023/05/16 03:47:36;;;;;;;44.67;40.10;;;13.60;1.00;;;;;;5081689;28;21054;-83
2023/05/16 03:50:06;;;;;;;45.43;41.03;;;13.60;81.20;;;;;;5080565;28;20454;-83
2023/05/16 03:52:34;;;;;;;46.10;40.63;;;13.70;99.90;;;;;;5076441;28;20492;-83
2023/05/16 03:55:02;;;;;;;45.00;40.70;;;13.60;99.90;;;;;;5076940;28;20481;-84
2023/05/16 03:57:33;;;;;;;44.73;40.10;;;13.70;96.80;;;;;;5074414;28;20452;-82
2023/05/16 04:00:05;;;;;;;47.10;42.30;;;13.70;91.00;;;;;;5067597;28;20465;-81
2023/05/16 04:02:34;;;;;;;48.20;42.70;;;13.70;7.20;;;;;;5075351;28;20886;-79
2023/05/16 04:05:03;;;;;;;43.87;39.23;;;13.70;99.90;;;;;;5075827;28;20570;-79
2023/05/16 04:07:31;;;;;;;46.03;41.00;;;13.70;99.90;;;;;;5074859;28;21131;-81
2023/05/16 04:09:59;;;;;;;45.83;41.10;;;13.70;99.90;;;;;;5079442;28;20541;-80
2023/05/16 04:12:28;;;;;;;48.23;43.03;;;13.80;99.90;;;;;;5078065;28;20467;-83
2023/05/16 04:14:57;;;;;;;48.20;43.20;;;13.70;99.90;;;;;;5083343;28;20486;-79
2023/05/16 04:17:28;;;;;;;48.00;43.10;;;13.70;99.90;;;;;;5081769;28;20934;-81
2023/05/16 04:19:57;;;;;;;46.93;42.13;;;13.80;99.90;;;;;;5076272;28;20454;-82
2023/05/16 04:22:25;;;;;;;46.23;41.37;;;13.80;99.90;;;;;;5079765;28;20451;-82
2023/05/16 04:24:53;;;;;;;45.90;41.07;;;13.70;99.90;;;;;;5074054;28;20455;-81
2023/05/16 04:27:21;;;;;;;44.87;40.40;;;13.80;99.90;;;;;;5079994;28;20486;-81
2023/05/16 04:29:49;;;;;;;47.20;42.47;;;13.80;99.90;;;;;;5077165;28;20453;-83
2023/05/16 04:32:19;;;;;;;47.33;42.23;;;13.80;99.90;;;;;;5078290;28;20754;-85
2023/05/16 04:34:48;;;;;;;48.03;43.00;;;13.70;1.00;;;;;;5074355;28;20462;-83
2023/05/16 04:37:17;;;;;;;47.30;42.50;;;13.80;1.00;;;;;;5072932;28;20461;-81
2023/05/16 04:39:45;;;;;;;44.83;40.17;;;13.80;99.90;;;;;;5078158;28;20482;-77
2023/05/16 04:42:13;;;;;;;50.10;41.90;;;13.80;1.00;;;;;;5080747;28;20452;-82
2023/05/16 04:44:42;;;;;;;46.93;42.23;;;13.80;1.00;;;;;;5074824;28;20966;-82
2023/05/16 04:47:11;;;;;;;45.90;41.17;;;13.80;99.90;;;;;;5075353;28;20464;-82
2023/05/16 04:49:40;;;;;;;47.20;42.27;;;13.80;99.90;;;;;;5080149;28;20511;-83
2023/05/16 04:52:08;;;;;;;44.97;40.40;;;13.90;1.00;;;;;;5079272;28;20441;-83
2023/05/16 04:54:38;;;;;;;46.90;42.17;;;13.90;99.90;;;;;;5080912;28;20536;-79
2023/05/16 04:57:06;;;;;;;45.50;40.90;;;13.90;99.90;;;;;;5082959;28;20950;-84
2023/05/16 04:59:34;;;;;;;45.73;41.23;;;13.90;99.90;;;;;;5079486;28;20470;-84
2023/05/16 05:02:03;;;;;;;45.60;41.10;;;13.90;1.00;;;;;;5078325;28;20510;-80
2023/05/16 05:04:31;;;;;;;46.33;41.40;;;13.90;99.90;;;;;;5079577;28;20459;-81
2023/05/16 05:07:01;;;;;;;44.57;40.20;;;14.00;99.90;;;;;;5079702;28;20481;-80
2023/05/16 05:09:29;;;;;;;45.97;41.43;;;13.90;99.90;;;;;;5077430;28;20873;-80
2023/05/16 05:11:57;;;;;;;47.37;42.43;;;13.90;99.90;;;;;;5080633;28;20483;-85
2023/05/16 05:14:25;;;;;;;44.80;40.23;;;13.90;1.00;;;;;;5073655;28;20453;-83
2023/05/16 05:16:53;;;;;;;46.70;41.80;;;13.90;1.00;;;;;;5078207;28;20485;-83
2023/05/16 05:19:21;;;;;;;45.80;41.27;;;13.90;99.90;;;;;;5079069;28;20836;-82
2023/05/16 05:21:49;;;;;;;43.23;38.77;;;14.00;99.90;;;;;;5076009;28;20460;-82
2023/05/16 05:24:19;;;;;;;43.77;39.30;;;14.00;99.90;;;;;;5077623;28;20533;-87
2023/05/16 05:26:47;;;;;;;44.63;40.10;;;14.00;99.90;;;;;;5090726;28;20480;-84
2023/05/16 05:29:15;;;;;;;43.87;39.47;;;14.00;99.90;;;;;;5077256;28;20456;-83
2023/05/16 05:31:43;;;;;;;45.50;41.10;;;14.00;99.90;;;;;;5076618;28;20607;-84
2023/05/16 05:34:11;;;;;;;42.50;38.30;;;14.00;99.90;;;;;;5078330;28;20462;-83
2023/05/16 05:36:40;;;;;;;45.00;40.20;;;14.00;99.90;;;;;;5076267;28;20478;-84
2023/05/16 05:39:08;;;;;;;44.03;39.97;;;14.00;99.90;;;;;;5075491;28;20469;-84
2023/05/16 05:41:38;;;;;;;44.33;39.73;;;14.00;99.90;;;;;;5080805;28;20509;-82
2023/05/16 05:44:07;;;;;;;42.60;38.13;;;14.00;99.90;;;;;;5072204;28;20470;-82
2023/05/16 05:46:35;;;;;;;44.90;40.40;;;14.00;99.90;;;;;;5078095;28;20475;-83
2023/05/16 05:49:03;;;;;;;45.20;40.67;;;14.00;99.90;;;;;;5079082;28;21281;-82
2023/05/16 05:51:31;;;;;;;44.37;39.97;;;14.00;99.90;;;;;;5083980;28;20456;-82
2023/05/16 05:54:00;;;;;;;44.87;40.43;;;14.00;99.90;;;;;;5081932;28;20491;-84
2023/05/16 05:56:28;;;;;;;44.63;40.20;;;14.00;99.90;;;;;;5085847;28;20865;-80
2023/05/16 05:58:57;;;;;;;43.47;39.03;;;14.00;1.00;;;;;;5084169;28;20490;-82
2023/05/16 06:01:26;;;;;;;47.60;43.20;;;14.00;99.90;;;;;;5074602;28;21241;-80
2023/05/16 06:03:54;;;;;;;43.87;39.47;;;13.90;99.90;;;;;;5079551;28;20969;-83
2023/05/16 06:06:22;;;;;;;42.40;38.10;;;14.00;99.90;;;;;;5077284;28;20484;-85
2023/05/16 06:08:50;;;;;;;43.63;39.47;;;14.00;13.60;;;;;;5078332;28;20934;-83
2023/05/16 06:11:19;;;;;;;44.07;39.87;;;14.00;1.00;;;;;;5083336;28;20846;-87
2023/05/16 06:13:47;;;;;;;42.20;38.20;;;14.00;1.00;;;;;;5083217;28;20461;-82
2023/05/16 06:16:19;;;;;;;41.13;37.10;;;14.10;25.00;;;;;;5084703;28;20477;-81
2023/05/16 06:18:47;;;;;;;42.10;38.00;;;14.00;1.00;;;;;;5112521;27;20494;-83
2023/05/16 06:21:15;;;;;;;41.83;37.83;;;14.00;1.00;;;;;;5086093;28;20468;-83
2023/05/16 06:23:51;;;;;;;40.30;36.67;;;14.10;1.00;;;;;;5079777;28;20613;-83
2023/05/16 06:26:27;;;;;;;40.00;36.30;;;14.00;1.00;;;;;;5074378;28;20690;-85
2023/05/16 06:28:55;;;;;;;40.47;36.67;;;14.00;1.00;;;;;;5084147;28;20480;-83
2023/05/16 06:31:26;;;;;;;40.67;37.03;;;14.00;1.00;;;;;;5083639;28;20470;-81
2023/05/16 06:33:55;;;;;;;41.67;37.27;;;14.10;38.40;;;;;;5086752;28;20456;-84
2023/05/16 06:36:24;;;;;;;41.10;37.30;;;14.10;1.00;;;;;;5081650;28;20567;-81
2023/05/16 06:38:52;;;;;;;39.60;36.00;;;14.10;1.00;;;;;;5116828;27;20460;-83
2023/05/16 06:41:20;;;;;;;38.00;34.63;;;14.20;1.00;;;;;;5076683;28;20468;-82
2023/05/16 06:43:48;;;;;;;39.93;36.07;;;14.20;1.00;;;;;;5076552;28;20461;-83
2023/05/16 06:46:17;;;;;;;40.90;36.87;;;14.20;99.90;;;;;;5086123;28;20468;-82
2023/05/16 06:48:47;;;;;;;37.33;33.83;;;14.20;1.00;;;;;;5079796;28;20480;-83
2023/05/16 06:51:15;;;;;;;38.90;35.37;;;14.20;1.00;;;;;;5081963;28;20465;-85
2023/05/16 06:53:45;;;;;;;37.17;33.90;;;14.20;99.90;;;;;;5082474;28;20509;-82
2023/05/16 06:56:13;;;;;;;36.53;33.37;;;14.10;99.90;;;;;;5082688;28;20464;-84
2023/05/16 06:58:42;;;;;;;37.97;34.67;;;14.10;99.90;;;;;;5089488;28;20830;-83
2023/05/16 07:01:10;;;;;;;38.30;34.40;;;14.10;99.90;;;;;;5082309;28;20564;-82
2023/05/16 07:03:39;;;;;;;37.50;34.27;;;14.00;99.90;;;;;;5082120;28;20469;-82
2023/05/16 07:06:09;;;;;;;37.07;33.80;;;14.00;99.90;;;;;;5084683;28;20512;-84
2023/05/16 07:08:37;;;;;;;36.53;33.37;;;14.00;99.90;;;;;;5117322;27;20482;-83
2023/05/16 07:11:05;;;;;;;36.63;33.53;;;13.90;99.90;;;;;;5082060;28;20445;-82
2023/05/16 07:13:33;;;;;;;36.17;33.10;;;13.90;99.90;;;;;;5082097;28;21071;-82
2023/05/16 07:16:03;;;;;;;35.23;32.43;;;13.90;99.90;;;;;;5081967;28;20522;-82
2023/05/16 07:18:31;;;;;;;37.10;34.07;;;13.90;1.00;;;;;;5082031;28;20548;-80
2023/05/16 07:21:00;;;;;;;34.33;31.53;;;14.00;99.90;;;;;;5114421;27;20470;-83
2023/05/16 07:23:29;;;;;;;35.60;32.80;;;14.00;99.90;;;;;;5079304;28;20550;-82
2023/05/16 07:25:58;;;;;;;38.10;34.77;;;14.00;99.90;;;;;;5078042;28;20529;-83
2023/05/16 07:28:26;;;;;;;35.00;32.00;;;14.00;99.90;;;;;;5080076;28;20464;-83
2023/05/16 07:30:57;;;;;;;35.50;32.40;;;14.00;99.90;;;;;;5082827;28;20547;-84
2023/05/16 07:33:26;;;;;;;35.83;33.00;;;14.00;99.90;;;;;;5082460;28;20457;-83
2023/05/16 07:35:54;;;;;;;33.57;30.57;;;14.00;99.90;;;;;;5083216;28;20563;-83
2023/05/16 07:38:43;;;;;;;33.10;30.20;;;13.90;99.90;;;;;;5076873;28;20455;-84
2023/05/16 07:41:11;;;;;;;31.40;29.00;;;14.00;99.90;;;;;;5083742;28;20440;-84
2023/05/16 07:43:40;;;;;;;31.00;28.70;;;14.00;99.90;;;;;;5084157;28;20456;-83
2023/05/16 07:46:08;;;;;;;29.37;26.97;;;14.00;99.90;;;;;;5080219;28;20989;-83
2023/05/16 07:48:37;;;;;;;29.57;27.40;;;14.10;20.80;;;;;;5081703;28;20564;-81
2023/05/16 07:51:05;;;;;;;29.00;26.93;;;14.10;1.00;;;;;;5072807;28;20466;-83
2023/05/16 07:53:33;;;;;;;30.00;27.87;;;14.10;3.30;;;;;;5078626;28;20464;-84
2023/05/16 07:56:03;;;;;;;27.77;25.77;;;14.20;79.80;;;;;;5081872;28;20491;-82
2023/05/16 07:58:31;;;;;;;30.00;28.00;;;14.20;1.00;;;;;;5079959;28;20910;-81
2023/05/16 08:01:00;;;;;;;29.10;26.77;;;14.20;1.00;;;;;;5080917;28;20446;-83
2023/05/16 08:03:29;;;;;;;30.17;27.40;;;14.20;1.00;;;;;;5078958;28;20470;-82
2023/05/16 08:05:57;;;;;;;29.67;27.60;;;14.20;1.00;;;;;;5084848;28;20479;-83
2023/05/16 08:08:26;;;;;;;30.63;28.50;;;14.10;29.30;;;;;;5076808;28;20500;-87
2023/05/16 08:10:54;;;;;;;32.03;29.50;;;14.00;99.90;;;;;;5079208;28;20460;-84
2023/05/16 08:13:24;;;;;;;30.97;28.57;;;14.00;99.90;;;;;;5081251;28;20450;-83
2023/05/16 08:15:52;;;;;;;31.53;29.20;;;14.20;99.90;;;;;;5083834;28;21009;-83
2023/05/16 08:18:21;;;;;;;30.63;28.17;;;14.20;99.90;;;;;;5081893;28;20817;-84
2023/05/16 08:20:50;;;;;;;30.97;28.67;;;14.30;99.90;;;;;;5080716;28;20475;-85
2023/05/16 08:23:19;;;;;;;31.30;29.10;;;14.30;99.90;;;;;;5082498;28;20474;-85
2023/05/16 08:25:48;;;;;;;30.63;28.20;;;14.20;1.00;;;;;;5112839;27;21115;-83
2023/05/16 08:28:16;;;;;;;30.47;27.97;;;14.20;1.00;;;;;;5113717;27;20863;-84
2023/05/16 08:30:46;;;;;;;29.63;27.27;;;14.20;1.00;;;;;;5075873;28;20460;-83
2023/05/16 08:33:15;;;;;;;29.03;26.83;;;14.20;1.00;;;;;;5078913;28;21023;-83
2023/05/16 08:35:43;;;;;;;29.60;27.50;;;14.20;1.00;;;;;;5079867;28;20484;-84
2023/05/16 08:38:12;;;;;;;30.00;27.80;;;14.10;1.00;;;;;;5082427;28;20557;-85
2023/05/16 08:40:41;;;;;;;31.03;28.77;;;14.10;1.00;;;;;;5111613;27;20465;-83
2023/05/16 08:43:10;;;;;;;29.20;27.10;;;14.00;1.00;;;;;;5115715;27;20458;-85
2023/05/16 08:45:40;;;;;;;30.40;28.20;;;13.90;28.70;;;;;;5112646;27;21111;-81
2023/05/16 08:48:11;;;;;;;28.03;26.10;;;13.90;1.00;;;;;;5078939;28;20545;-82
2023/05/16 08:50:41;;;;;;;29.67;27.63;;;13.90;73.70;;;;;;5080500;28;20475;-83
2023/05/16 08:53:11;;;;;;;29.90;27.77;;;13.80;99.90;;;;;;5080678;28;20453;-83
2023/05/16 08:55:42;;;;;;;29.07;26.97;;;13.90;99.90;;;;;;5081885;28;21054;-83
2023/05/16 08:58:11;;;;;;;29.93;27.80;;;13.90;99.90;;;;;;5084810;28;20480;-82
2023/05/16 09:00:40;;;;;;;29.20;27.00;;;14.00;99.90;;;;;;5080061;28;20858;-84
2023/05/16 09:03:10;;;;;;;30.67;28.37;;;13.90;99.90;;;;;;5082055;28;20460;-83
2023/05/16 09:05:38;;;;;;;31.90;29.47;;;14.00;99.90;;;;;;5078057;28;20560;-82
2023/05/16 09:08:07;;;;;;;30.57;28.07;;;14.00;99.90;;;;;;5081449;28;20496;-83
2023/05/16 09:10:35;;;;;;;33.10;30.40;;;14.00;99.90;;;;;;5079747;28;20479;-84
2023/05/16 09:13:04;;;;;;;31.30;29.00;;;14.00;99.90;;;;;;5082826;28;20493;-81
2023/05/16 09:15:33;;;;;;;32.07;29.63;;;14.00;99.90;;;;;;5078489;28;20477;-84
2023/05/16 09:18:02;;;;;;;30.63;28.43;;;14.00;64.50;;;;;;5076020;28;20543;-85
2023/05/16 09:20:32;;;;;;;34.37;31.53;;;13.90;99.90;;;;;;5080495;28;21442;-82
2023/05/16 09:23:00;;;;;;;32.60;29.97;;;13.90;99.90;;;;;;5080153;28;20465;-82
2023/05/16 09:25:30;;;;;;;31.13;28.80;;;13.90;99.90;;;;;;5075432;28;20505;-84
2023/05/16 09:28:01;;;;;;;32.10;29.50;;;14.00;99.90;;;;;;5080928;28;21022;-82
2023/05/16 09:30:32;;;;;;;31.33;28.90;;;14.00;99.90;;;;;;5082925;28;20484;-81
2023/05/16 09:33:02;;;;;;;34.17;31.17;;;14.10;99.90;;;;;;5083409;28;20453;-81
2023/05/16 09:35:32;;;;;;;33.87;31.20;;;14.20;99.90;;;;;;5085855;28;20475;-82
2023/05/16 09:38:03;;;;;;;31.73;29.37;;;14.20;92.80;;;;;;5082123;28;20483;-80
2023/05/16 09:40:31;;;;;;;32.30;29.63;;;14.20;99.90;;;;;;5085523;28;20648;-82
2023/05/16 09:43:04;;;;;;;33.37;30.73;;;14.30;99.90;;;;;;5083793;28;20548;-80
2023/05/16 09:45:33;;;;;;;32.70;30.10;;;14.30;99.90;;;;;;5089006;28;20475;-81
2023/05/16 09:48:06;;;;;;;33.07;30.23;;;14.30;28.70;;;;;;5087419;28;20451;-80
2023/05/16 09:50:37;;;;;;;31.97;29.37;;;14.30;1.00;;;;;;5086869;28;20574;-83
2023/05/16 09:53:06;;;;;;;33.20;30.60;;;14.40;1.00;;;;;;5085661;28;20457;-80
2023/05/16 09:55:35;;;;;;;33.07;30.03;;;14.30;1.00;;;;;;5088352;28;20488;-83
2023/05/16 09:58:03;;;;;;;32.00;29.30;;;14.40;1.00;;;;;;5080211;28;20449;-80
2023/05/16 10:00:33;;;;;;;33.67;30.67;;;14.40;1.00;;;;;;5077405;28;20808;-82
2023/05/16 10:03:02;;;;;;;33.10;30.17;;;14.50;1.00;;;;;;5084177;28;20443;-83
2023/05/16 10:05:36;;;;;;;32.30;29.80;;;14.50;1.00;;;;;;5079322;28;20486;-83
2023/05/16 10:08:05;;;;;;;31.93;29.37;;;14.60;1.00;;;;;;5080521;28;20462;-83
2023/05/16 10:10:40;;;;;;;32.60;30.00;;;14.70;1.00;;;;;;5082187;28;20479;-83
2023/05/16 10:13:10;;;;;;;31.63;29.07;;;14.70;1.00;;;;;;5081710;28;20458;-82
2023/05/16 10:15:39;;;;;;;30.47;28.17;;;14.80;99.90;;;;;;5082534;28;20509;-80
2023/05/16 10:18:11;;;;;;;30.93;28.60;;;14.70;99.90;;;;;;5077949;28;20458;-81
2023/05/16 10:20:44;;;;;;;30.83;28.53;;;14.70;99.90;;;;;;5078316;28;20445;-84
2023/05/16 10:23:18;;;;;;;29.90;27.40;;;14.70;99.90;;;;;;5082147;28;20841;-84
2023/05/16 10:25:48;;;;;;;30.80;28.30;;;14.60;99.90;;;;;;5075290;28;20962;-82
2023/05/16 10:28:16;;;;;;;28.90;26.70;;;14.50;1.00;;;;;;5095788;27;20460;-83
2023/05/16 10:30:46;;;;;;;30.03;27.73;;;14.50;1.00;;;;;;5078429;28;20491;-82
2023/05/16 10:33:16;;;;;;;28.90;26.70;;;14.60;1.00;;;;;;5078102;28;20564;-83
2023/05/16 10:35:46;;;;;;;28.40;26.20;;;14.50;1.00;;;;;;5080626;28;20477;-82
2023/05/16 10:38:17;;;;;;;28.60;26.40;;;14.50;1.00;;;;;;5082612;28;20997;-82
2023/05/16 10:40:47;;;;;;;29.30;27.07;;;14.50;1.00;;;;;;5075895;28;20458;-83
2023/05/16 10:43:24;;;;;;;28.80;26.63;;;14.50;1.00;;;;;;5111140;27;20468;-82
2023/05/16 10:45:55;;;;;;;29.40;27.00;;;14.40;99.90;;;;;;5075905;28;20480;-82
2023/05/16 10:48:40;;;;;;;28.17;26.13;;;14.30;99.90;;;;;;5082494;28;20457;-82
2023/05/16 10:51:37;;;;;;;27.13;25.33;;;14.30;1.00;;;;;;5080199;28;20956;-82
2023/05/16 10:54:08;;;;;;;26.63;24.73;;;14.30;1.00;;;;;;5081761;28;20489;-82
2023/05/16 10:56:43;;;;;;;27.57;25.60;;;14.30;99.90;;;;;;5081171;28;20876;-81
2023/05/16 10:59:29;;;;;;;27.50;25.50;;;14.30;99.90;;;;;;5081845;28;20483;-83
2023/05/16 11:02:00;;;;;;;26.90;25.00;;;14.40;1.00;;;;;;5080739;28;20451;-83
2023/05/16 11:04:48;;;;;;;26.67;24.83;;;14.40;99.90;;;;;;5082255;28;20485;-83
2023/05/16 11:07:23;;;;;;;25.37;23.57;;;14.50;1.00;;;;;;5080938;28;20447;-82
2023/05/16 11:10:04;;;;;;;24.80;23.03;;;14.60;1.00;;;;;;5080925;28;20451;-82
2023/05/16 11:12:54;;;;;;;24.40;23.00;;;14.60;99.90;;;;;;5079027;28;20440;-82
2023/05/16 11:15:27;;;;;;;24.63;23.10;;;14.50;99.90;;;;;;5110033;27;20555;-82
2023/05/16 11:18:09;;;;;;;25.47;23.83;;;14.50;99.90;;;;;;5080422;28;20511;-83
2023/05/16 11:20:39;;;;;;;23.50;22.10;;;14.50;99.90;;;;;;5081228;28;20456;-83
2023/05/16 11:23:23;;;;;;;24.03;22.83;;;14.40;99.90;;;;;;5081520;28;20458;-82
2023/05/16 11:25:56;;;;;;;22.60;21.30;;;14.50;1.00;;;;;;5072578;28;20473;-81
2023/05/16 11:28:26;;;;;;;22.50;21.30;;;14.50;1.00;;;;;;5084004;28;20454;-82
2023/05/16 11:30:57;;;;;;;23.23;21.83;;;14.50;1.00;;;;;;5084477;28;20473;-82
2023/05/16 11:33:35;;;;;;;21.83;20.83;;;14.40;1.00;;;;;;5087665;28;20469;-82
2023/05/16 11:36:16;;;;;;;24.33;23.07;;;14.30;1.00;;;;;;5085872;28;20475;-82
2023/05/16 11:38:46;;;;;;;23.23;21.90;;;14.30;1.00;;;;;;5084851;28;20484;-83
2023/05/16 11:41:16;;;;;;;22.63;21.33;;;14.30;1.00;;;;;;5086761;28;20486;-83
2023/05/16 11:43:45;;;;;;;23.03;21.73;;;14.20;1.00;;;;;;5086724;28;21028;-81
2023/05/16 11:46:15;;;;;;;22.80;21.60;;;14.30;1.00;;;;;;5086852;28;20511;-84
2023/05/16 11:48:45;;;;;;;22.23;20.83;;;14.20;10.80;;;;;;5082758;28;20487;-83
2023/05/16 11:51:17;;;;;;;21.80;20.50;;;14.20;52.70;;;;;;5080847;28;20505;-83
2023/05/16 11:53:48;;;;;;;21.80;20.63;;;14.20;1.00;;;;;;5079678;28;20549;-83
2023/05/16 11:56:17;;;;;;;21.53;20.43;;;14.20;1.00;;;;;;5075199;28;20515;-82
2023/05/16 11:58:46;;;;;;;21.63;20.43;;;14.20;1.00;;;;;;5079162;28;20533;-82
2023/05/16 12:01:14;;;;;;;22.13;20.90;;;14.20;1.00;;;;;;5078902;28;20540;-83
2023/05/16 12:03:43;;;;;;;22.20;20.90;;;14.20;1.00;;;;;;5078285;28;20468;-83
2023/05/16 12:06:12;;;;;;;21.93;20.80;;;14.10;1.00;;;;;;5079379;28;20486;-82
2023/05/16 12:08:51;;;;;;;22.30;20.90;;;14.10;1.00;;;;;;5070661;28;20464;-83
2023/05/16 12:11:20;;;;;;;21.33;20.27;;;14.20;1.00;;;;;;5076611;28;20513;-82
2023/05/16 12:13:49;;;;;;;21.30;20.13;;;14.20;1.00;;;;;;5078671;28;20469;-83
2023/05/16 12:16:17;;;;;;;21.00;20.03;;;14.30;1.00;;;;;;5071553;28;20474;-83
2023/05/16 12:18:46;;;;;;;21.57;20.47;;;14.30;1.00;;;;;;5075924;28;20488;-83
2023/05/16 12:21:15;;;;;;;20.97;19.97;;;14.30;1.00;;;;;;5074551;28;20445;-82
2023/05/16 12:23:43;;;;;;;19.73;18.90;;;14.30;99.90;;;;;;5074168;28;20545;-82
2023/05/16 12:26:13;;;;;;;20.90;19.90;;;14.40;1.00;;;;;;5073335;28;20602;-82
2023/05/16 12:28:43;;;;;;;20.27;19.27;;;14.40;1.00;;;;;;5073530;28;20894;-83
2023/05/16 12:31:18;;;;;;;20.40;19.20;;;14.50;1.00;;;;;;5075440;28;20491;-82
2023/05/16 12:33:59;;;;;;;20.23;19.27;;;14.60;99.90;;;;;;5076789;28;22527;-82
2023/05/16 12:36:32;;;;;;;20.90;19.90;;;14.60;99.90;;;;;;5074443;28;20521;-83
2023/05/16 12:39:02;;;;;;;20.57;19.60;;;14.60;99.90;;;;;;5072648;28;20625;-82
2023/05/16 12:41:32;;;;;;;19.70;18.90;;;14.60;99.90;;;;;;5073597;28;20498;-82
2023/05/16 12:44:15;;;;;;;19.90;18.90;;;14.60;99.90;;;;;;5073168;28;20453;-82
2023/05/16 12:46:45;;;;;;;19.57;18.77;;;14.60;99.90;;;;;;5075548;28;21029;-83
2023/05/16 12:49:14;;;;;;;19.67;18.83;;;14.60;99.90;;;;;;5076113;28;20545;-84
2023/05/16 12:51:50;;;;;;;18.77;18.07;;;14.50;98.10;;;;;;5074829;28;20837;-83
2023/05/16 12:54:19;;;;;;;18.90;18.10;;;14.40;99.90;;;;;;5075206;28;20444;-82
2023/05/16 12:56:49;;;;;;;20.27;19.30;;;14.30;99.90;;;;;;5072270;28;20569;-83
2023/05/16 12:59:18;;;;;;;20.53;19.37;;;14.30;99.90;;;;;;5072843;28;20864;-82
2023/05/16 13:01:47;;;;;;;19.43;18.43;;;14.30;99.90;;;;;;5078241;28;20451;-82
2023/05/16 13:04:18;;;;;;;19.20;18.40;;;14.20;99.90;;;;;;5075072;28;20504;-82
2023/05/16 13:06:47;;;;;;;18.57;17.70;;;14.20;99.90;;;;;;5072735;28;20483;-82
2023/05/16 13:09:26;;;;;;;18.83;18.13;;;14.20;99.90;;;;;;5110459;28;20451;-82
2023/05/16 13:12:01;;;;;;;19.53;18.60;;;14.10;99.90;;;;;;5078022;28;20481;-82